Amarillo, TX (79103)

11:33 PM CDT on September 19, 2014 (GMT -0500)
Oliver-Eakle | Change Station
CLOSE
Current Station
Personal Weather Station
Location: Amarillo, TX
Elevation: 3678 ft
Nearby Weather Stations

Elev 3678 ft 35.19 °N, 101.84 °W | Updated 11 seconds ago

Clear
Clear
65.5 °F
Feels Like 65.5 °F
N
2.9
Wind Variable Wind from SSE
Gusts 5.8 mph

Today
High -- | Low -- °F
--% Chance of Precip.
Yesterday
High -- | Low -- °F
Precip. -- in
7:33 AM 7:48 PM
Waning Crescent, 15% visible
Pressure 29.92 in
Visibility 10.0 miles
Clouds Clear
Dew Point 63 °F
Humidity 91%
Rainfall 0.15 in
Snow Depth Not available.
UV 0 out of 12
Pollen 6.80 out of 12
Air Quality Not available.
Flu Activity Not available.
METAR KAMA 200353Z 17012KT 10SM CLR 19/18 A3005 RMK AO2 SLP130 T01940178

More Conditions Fewer Conditions

Pressure 29.92 in
Visibility 10.0 miles
Clouds Clear
Dew Point 63 °F
Humidity 91%
Rainfall 0.15 in
Snow Depth Not available.
UV 0 out of 12
Pollen 6.80 out of 12
Air Quality Not available.
Flu Activity Not available.
METAR KAMA 200353Z 17012KT 10SM CLR 19/18 A3005 RMK AO2 SLP130 T01940178

More Conditions Fewer Conditions

10-Day Weather Forecast

Almanac

Astronomy

Sep. 19, 2014 Rise Set
Actual Time 7:33 AM CDT 7:48 PM CDT
Civil Twilight 7:07 AM CDT 8:13 PM CDT
Nautical Twilight 6:37 AM CDT 8:43 PM CDT
Astronomical Twilight 6:07 AM CDT 9:13 PM CDT
Moon 3:27 AM CDT (9/19) 5:11 PM CDT (9/19)
Length of Visible Light 13h 05m
Length of Day
12h 15m
Tomorrow will be 2m 12s shorter.
Waning Crescent, 15% of the Moon is Illuminated
Sep 20
Waning Crescent
Sep 24
New
Oct 1
First Quarter
Oct 8
Full
Oct 15
Last Quarter

Yesterday's Extremes

State Highs State Lows

Community

WunderPhotos

Upload Photos

1,754,777 photos uploaded!

WunderBlogs® & News

Nearby

Snow Depth

Station Depth Elevation
No new snow has been reported.

Earthquake Activity

City Distance Mag. Time & Date
No recent earthquake activity has been reported nearby.
Minimum magnitude displayed is 2.5.

Coastal Water Temperatures

Place Temperature
No Stations Reporting

Nearby Weather Stations